Tiona, New York
Current Conditions -  °F | °C
As of 1:53 PM on Thursday 30 Oct 2014 (Local Time) from KBGM Reporting Station
Overcast Overcast  
Wind Chill: 41°   Ceiling: 2700
Heat Index: 45°   Visibility: 10mi
Dew Point: 34°   Wind: 7mph
Humidity: 65%   Direction: 310°NW
Pressure: 30"   Gusts: NA
Location:  42.2341°N, 76.1713°W
Report Text: KBGM 301753Z 31006KT 10SM OVC027 07/01 A3000 RMK AO2 SLP167 60000 T00720011 10072 20050 58003
Loading
Personal Weather Stations






























Interactive Weather Map New forecast layout! Learn more

10-Day Weather Forecast

Advertisements
Track Severe Weather on mobile